Terminal Aerodrome Forecast
Issued by NWS

Home | Current Version | Previous Version | Text Only | Print | Product List | Glossary On
Versions: 1 2 3 4 5 6 7 8 9 10 11 12 13 14 15 16 17 18 19 20
000
FTUS41 KPHI 010400 AAA
TAFMIV
TAF AMD
KMIV 010452Z 0105/0124 03005KT P6SM BKN110
      TEMPO 0105/0106 BKN016
     FM010600 04004KT P6SM BKN012
     FM010800 02005KT 4SM BR BKN006
     FM011400 03008KT P6SM BKN015
     FM011700 03008KT P6SM SCT015 BKN040=

USA.gov is the U.S. government's official web portal to all federal, state and local government web resources and services.